GLO1505 SBRF-SBGR
Flight info
| Callsign | GLO1505 |
|---|---|
| Flight time | N/A |
| Altitude | 36000 |
| Route | UDOSA UZ21 TOPUG/N0450F360 UZ21 VUNOX |
| Aircraft | B738/M-SDE2E3FGHIRWXY/LB1 |
Departure
| Time | 2026-04-29 01:41 |
|---|---|
| Airport | Recife/Guararapes - Gilberto Freyre International Airport (SBRF) |
Arrival
| Time | N/A |
|---|---|
| Airport | São Paulo/Guarulhos–Governor André Franco Montoro International Airport (SBGR) |
| Time | Latitude | Longitude | Altitude | Speed | Heading |
|---|---|---|---|---|---|
| 2026-04-29 01:12 | -8.13278 | -34.91886 | 36 ft | 0 kts | 71° |
| 2026-04-29 01:29 | -8.13284 | -34.91902 | 36 ft | 4 kts | 72° |
| 2026-04-29 01:29 | -8.13292 | -34.91928 | 36 ft | 4 kts | 62° |
| 2026-04-29 01:29 | -8.13306 | -34.91944 | 36 ft | 4 kts | 356° |
| 2026-04-29 01:30 | -8.13310 | -34.91944 | 36 ft | 0 kts | 342° |
| 2026-04-29 01:32 | -8.13286 | -34.91952 | 36 ft | 8 kts | 342° |
| 2026-04-29 01:32 | -8.13207 | -34.91977 | 36 ft | 13 kts | 343° |
| 2026-04-29 01:32 | -8.13122 | -34.92006 | 36 ft | 13 kts | 342° |
| 2026-04-29 01:32 | -8.13039 | -34.92033 | 37 ft | 12 kts | 342° |
| 2026-04-29 01:33 | -8.12957 | -34.92060 | 37 ft | 12 kts | 343° |
| 2026-04-29 01:33 | -8.12878 | -34.92086 | 35 ft | 12 kts | 341° |
| 2026-04-29 01:33 | -8.12801 | -34.92111 | 37 ft | 11 kts | 342° |
| 2026-04-29 01:33 | -8.12726 | -34.92136 | 37 ft | 11 kts | 341° |
| 2026-04-29 01:34 | -8.12653 | -34.92160 | 37 ft | 11 kts | 342° |
| 2026-04-29 01:34 | -8.12582 | -34.92183 | 37 ft | 11 kts | 342° |
| 2026-04-29 01:34 | -8.12513 | -34.92207 | 37 ft | 10 kts | 342° |
| 2026-04-29 01:34 | -8.12447 | -34.92229 | 37 ft | 10 kts | 342° |
| 2026-04-29 01:35 | -8.12382 | -34.92250 | 37 ft | 10 kts | 342° |
| 2026-04-29 01:35 | -8.12319 | -34.92270 | 35 ft | 9 kts | 342° |
| 2026-04-29 01:35 | -8.12257 | -34.92291 | 37 ft | 9 kts | 342° |
| 2026-04-29 01:35 | -8.12197 | -34.92311 | 35 ft | 9 kts | 341° |
| 2026-04-29 01:36 | -8.12139 | -34.92331 | 36 ft | 9 kts | 342° |
| 2026-04-29 01:36 | -8.12083 | -34.92349 | 36 ft | 8 kts | 342° |
| 2026-04-29 01:36 | -8.12028 | -34.92367 | 36 ft | 8 kts | 342° |
| 2026-04-29 01:36 | -8.11974 | -34.92385 | 34 ft | 8 kts | 341° |
| 2026-04-29 01:37 | -8.11922 | -34.92402 | 34 ft | 8 kts | 342° |
| 2026-04-29 01:37 | -8.11872 | -34.92419 | 36 ft | 7 kts | 342° |
| 2026-04-29 01:37 | -8.11824 | -34.92435 | 36 ft | 7 kts | 342° |
| 2026-04-29 01:37 | -8.11777 | -34.92450 | 36 ft | 7 kts | 342° |
| 2026-04-29 01:38 | -8.11731 | -34.92465 | 33 ft | 7 kts | 342° |
| 2026-04-29 01:38 | -8.11687 | -34.92480 | 36 ft | 7 kts | 342° |
| 2026-04-29 01:38 | -8.11635 | -34.92499 | 36 ft | 9 kts | 336° |
| 2026-04-29 01:38 | -8.11586 | -34.92530 | 35 ft | 8 kts | 322° |
| 2026-04-29 01:39 | -8.11542 | -34.92565 | 34 ft | 8 kts | 322° |
| 2026-04-29 01:39 | -8.11500 | -34.92602 | 36 ft | 8 kts | 318° |
| 2026-04-29 01:39 | -8.11458 | -34.92640 | 36 ft | 9 kts | 317° |
| 2026-04-29 01:39 | -8.11457 | -34.92692 | 36 ft | 9 kts | 219° |
| 2026-04-29 01:40 | -8.11516 | -34.92686 | 36 ft | 9 kts | 162° |
| 2026-04-29 01:40 | -8.11677 | -34.92634 | 35 ft | 59 kts | 162° |
| 2026-04-29 01:40 | -8.12314 | -34.92424 | 36 ft | 131 kts | 161° |
| 2026-04-29 01:40 | -8.13356 | -34.92048 | 174 ft | 180 kts | 159° |
| 2026-04-29 01:41 | -8.14569 | -34.91601 | 957 ft | 187 kts | 160° |
| 2026-04-29 01:41 | -8.15814 | -34.91229 | 1941 ft | 192 kts | 167° |
| 2026-04-29 01:41 | -8.17204 | -34.91454 | 2237 ft | 223 kts | 209° |
| 2026-04-29 01:41 | -8.18217 | -34.92705 | 2520 ft | 247 kts | 245° |
| 2026-04-29 01:42 | -8.18823 | -34.94377 | 2912 ft | 264 kts | 248° |
| 2026-04-29 01:42 | -8.19448 | -34.96188 | 3405 ft | 278 kts | 248° |
| 2026-04-29 01:42 | -8.20097 | -34.98040 | 4265 ft | 280 kts | 248° |
| 2026-04-29 01:42 | -8.20761 | -34.99892 | 5142 ft | 282 kts | 248° |
| 2026-04-29 01:43 | -8.21431 | -35.01763 | 5972 ft | 285 kts | 248° |
| 2026-04-29 01:43 | -8.22117 | -35.03645 | 6779 ft | 287 kts | 248° |
| 2026-04-29 01:43 | -8.22824 | -35.05549 | 7541 ft | 291 kts | 248° |
| 2026-04-29 01:43 | -8.23545 | -35.07468 | 8289 ft | 294 kts | 247° |
| 2026-04-29 01:44 | -8.24282 | -35.09409 | 9033 ft | 298 kts | 247° |
| 2026-04-29 01:44 | -8.25030 | -35.11370 | 9748 ft | 301 kts | 247° |
| 2026-04-29 01:44 | -8.25788 | -35.13356 | 10388 ft | 308 kts | 247° |
| 2026-04-29 01:44 | -8.26592 | -35.15446 | 10562 ft | 330 kts | 246° |
| 2026-04-29 01:45 | -8.27776 | -35.17490 | 10775 ft | 346 kts | 231° |
| 2026-04-29 01:45 | -8.29293 | -35.19389 | 11235 ft | 355 kts | 229° |
| 2026-04-29 01:45 | -8.30882 | -35.21312 | 11857 ft | 358 kts | 229° |
| 2026-04-29 01:45 | -8.32486 | -35.23248 | 12539 ft | 360 kts | 229° |
| 2026-04-29 01:46 | -8.34099 | -35.25208 | 13146 ft | 364 kts | 229° |
| 2026-04-29 01:46 | -8.35724 | -35.27199 | 13702 ft | 369 kts | 229° |
| 2026-04-29 01:46 | -8.37361 | -35.29218 | 14270 ft | 374 kts | 229° |
| 2026-04-29 01:46 | -8.39011 | -35.31264 | 14817 ft | 378 kts | 229° |
| 2026-04-29 01:47 | -8.40677 | -35.33336 | 15347 ft | 382 kts | 229° |
| 2026-04-29 01:47 | -8.42359 | -35.35432 | 15876 ft | 386 kts | 229° |
| 2026-04-29 01:47 | -8.44061 | -35.37555 | 16398 ft | 390 kts | 229° |
| 2026-04-29 01:47 | -8.45777 | -35.39698 | 16897 ft | 394 kts | 229° |
| 2026-04-29 01:48 | -8.47507 | -35.41858 | 17380 ft | 398 kts | 229° |
| 2026-04-29 01:48 | -8.49261 | -35.44048 | 17862 ft | 402 kts | 229° |
| 2026-04-29 01:48 | -8.50689 | -35.45833 | 18251 ft | 405 kts | 229° |
| 2026-04-29 01:48 | -8.52491 | -35.48083 | 18704 ft | 409 kts | 229° |
| 2026-04-29 01:49 | -8.54264 | -35.50298 | 19133 ft | 413 kts | 229° |
| 2026-04-29 01:49 | -8.56079 | -35.52566 | 19577 ft | 416 kts | 229° |
| 2026-04-29 01:49 | -8.57907 | -35.54850 | 20017 ft | 419 kts | 229° |
| 2026-04-29 01:49 | -8.59746 | -35.57150 | 20437 ft | 423 kts | 229° |
| 2026-04-29 01:50 | -8.61605 | -35.59474 | 20845 ft | 426 kts | 229° |
| 2026-04-29 01:50 | -8.63475 | -35.61811 | 21228 ft | 430 kts | 228° |
| 2026-04-29 01:50 | -8.65360 | -35.64169 | 21636 ft | 432 kts | 228° |
| 2026-04-29 01:50 | -8.67259 | -35.66545 | 21999 ft | 436 kts | 228° |
| 2026-04-29 01:51 | -8.69174 | -35.68940 | 22350 ft | 440 kts | 228° |
| 2026-04-29 01:51 | -8.71105 | -35.71356 | 22689 ft | 443 kts | 228° |
| 2026-04-29 01:51 | -8.73023 | -35.73756 | 23004 ft | 446 kts | 228° |
| 2026-04-29 01:51 | -8.74979 | -35.76205 | 23354 ft | 449 kts | 228° |
| 2026-04-29 01:52 | -8.76973 | -35.78702 | 23687 ft | 452 kts | 227° |
| 2026-04-29 01:52 | -8.78923 | -35.81145 | 24006 ft | 454 kts | 227° |
| 2026-04-29 01:52 | -8.80912 | -35.83636 | 24316 ft | 457 kts | 227° |
| 2026-04-29 01:52 | -8.82916 | -35.86146 | 24650 ft | 459 kts | 227° |
| 2026-04-29 01:53 | -8.84921 | -35.88659 | 25017 ft | 459 kts | 228° |
| 2026-04-29 01:53 | -8.86931 | -35.91180 | 25406 ft | 459 kts | 228° |
| 2026-04-29 01:53 | -8.88942 | -35.93701 | 25741 ft | 460 kts | 228° |
| 2026-04-29 01:53 | -8.90959 | -35.96230 | 26011 ft | 463 kts | 228° |
| 2026-04-29 01:54 | -8.92985 | -35.98770 | 26286 ft | 465 kts | 228° |
| 2026-04-29 01:54 | -8.95021 | -36.01324 | 26591 ft | 466 kts | 228° |
| 2026-04-29 01:54 | -8.97058 | -36.03880 | 26912 ft | 467 kts | 228° |
| 2026-04-29 01:54 | -8.99073 | -36.06410 | 27233 ft | 468 kts | 229° |
| 2026-04-29 01:55 | -9.01000 | -36.08829 | 27525 ft | 468 kts | 229° |
| 2026-04-29 01:55 | -9.03020 | -36.11365 | 27813 ft | 469 kts | 229° |
| 2026-04-29 01:55 | -9.05205 | -36.13816 | 28065 ft | 467 kts | 217° |
| 2026-04-29 01:55 | -9.07823 | -36.15742 | 28332 ft | 465 kts | 211° |
| 2026-04-29 01:56 | -9.10507 | -36.17582 | 28577 ft | 467 kts | 211° |
| 2026-04-29 01:56 | -9.13213 | -36.19423 | 28820 ft | 468 kts | 211° |
| 2026-04-29 01:56 | -9.15915 | -36.21277 | 29066 ft | 470 kts | 212° |
| 2026-04-29 01:56 | -9.18618 | -36.23154 | 29302 ft | 471 kts | 212° |
| 2026-04-29 01:57 | -9.21281 | -36.25021 | 29537 ft | 472 kts | 212° |
| 2026-04-29 01:57 | -9.23984 | -36.26928 | 29784 ft | 473 kts | 212° |
| 2026-04-29 01:57 | -9.26697 | -36.28849 | 30015 ft | 475 kts | 212° |
| 2026-04-29 01:57 | -9.29403 | -36.30766 | 30231 ft | 476 kts | 213° |
| 2026-04-29 01:58 | -9.32122 | -36.32693 | 30454 ft | 477 kts | 213° |
| 2026-04-29 01:58 | -9.34837 | -36.34617 | 30747 ft | 476 kts | 213° |
| 2026-04-29 01:58 | -9.37538 | -36.36532 | 31092 ft | 473 kts | 213° |
| 2026-04-29 01:58 | -9.40236 | -36.38443 | 31458 ft | 471 kts | 213° |
| 2026-04-29 01:59 | -9.42880 | -36.40316 | 31783 ft | 469 kts | 213° |
| 2026-04-29 01:59 | -9.45555 | -36.42211 | 32085 ft | 468 kts | 213° |
| 2026-04-29 01:59 | -9.48219 | -36.44098 | 32403 ft | 466 kts | 213° |
| 2026-04-29 01:59 | -9.50868 | -36.45976 | 32733 ft | 464 kts | 213° |
| 2026-04-29 02:00 | -9.53512 | -36.47850 | 33065 ft | 462 kts | 213° |
| 2026-04-29 02:00 | -9.56140 | -36.49713 | 33372 ft | 461 kts | 213° |
| 2026-04-29 02:00 | -9.58767 | -36.51577 | 33693 ft | 459 kts | 213° |
| 2026-04-29 02:00 | -9.61378 | -36.53429 | 33996 ft | 458 kts | 213° |
| 2026-04-29 02:01 | -9.63984 | -36.55277 | 34288 ft | 456 kts | 213° |
| 2026-04-29 02:01 | -9.66577 | -36.57117 | 34557 ft | 455 kts | 213° |
| 2026-04-29 02:01 | -9.68306 | -36.58344 | 34694 ft | 456 kts | 213° |
| 2026-04-29 02:01 | -9.71744 | -36.60793 | 34956 ft | 457 kts | 213° |
| 2026-04-29 02:02 | -9.74339 | -36.62648 | 35193 ft | 456 kts | 213° |
| 2026-04-29 02:02 | -9.76928 | -36.64501 | 35433 ft | 455 kts | 213° |
| 2026-04-29 02:02 | -9.79514 | -36.66351 | 35629 ft | 455 kts | 213° |
| 2026-04-29 02:02 | -9.82107 | -36.68206 | 35811 ft | 456 kts | 214° |
| 2026-04-29 02:03 | -9.84695 | -36.70058 | 36004 ft | 456 kts | 214° |
| 2026-04-29 02:03 | -9.86452 | -36.71315 | 36021 ft | 458 kts | 214° |
| 2026-04-29 02:03 | -9.91538 | -36.74953 | 36022 ft | 457 kts | 214° |
| 2026-04-29 02:04 | -9.96718 | -36.78656 | 36003 ft | 454 kts | 214° |
| 2026-04-29 02:04 | -10.01871 | -36.82339 | 36019 ft | 451 kts | 214° |
| 2026-04-29 02:05 | -10.06796 | -36.85861 | 36028 ft | 449 kts | 214° |
| 2026-04-29 02:05 | -10.11667 | -36.89381 | 35993 ft | 450 kts | 216° |
| 2026-04-29 02:06 | -10.16731 | -36.93095 | 36019 ft | 449 kts | 213° |
| 2026-04-29 02:06 | -10.21844 | -36.96689 | 36033 ft | 450 kts | 213° |
| 2026-04-29 02:07 | -10.27027 | -37.00358 | 36032 ft | 453 kts | 214° |
| 2026-04-29 02:07 | -10.32156 | -37.04021 | 36034 ft | 455 kts | 214° |
| 2026-04-29 02:08 | -10.37351 | -37.07747 | 36031 ft | 457 kts | 214° |
| 2026-04-29 02:08 | -10.42567 | -37.11491 | 36029 ft | 459 kts | 214° |
| 2026-04-29 02:09 | -10.47792 | -37.15242 | 36029 ft | 460 kts | 214° |
| 2026-04-29 02:09 | -10.52993 | -37.18977 | 36028 ft | 461 kts | 214° |
| 2026-04-29 02:10 | -10.58223 | -37.22734 | 36024 ft | 460 kts | 214° |
| 2026-04-29 02:10 | -10.63456 | -37.26495 | 36026 ft | 459 kts | 214° |
| 2026-04-29 02:11 | -10.68670 | -37.30243 | 36027 ft | 458 kts | 214° |
| 2026-04-29 02:11 | -10.73869 | -37.33983 | 36027 ft | 457 kts | 214° |
| 2026-04-29 02:12 | -10.79058 | -37.37716 | 36023 ft | 456 kts | 214° |
| 2026-04-29 02:12 | -10.84231 | -37.41440 | 36027 ft | 455 kts | 214° |
| 2026-04-29 02:13 | -10.89389 | -37.45155 | 36026 ft | 454 kts | 214° |
| 2026-04-29 02:13 | -10.94509 | -37.48844 | 36026 ft | 453 kts | 214° |
| 2026-04-29 02:14 | -10.99655 | -37.52553 | 36029 ft | 453 kts | 214° |
| 2026-04-29 02:14 | -11.04794 | -37.56259 | 36028 ft | 453 kts | 214° |
| 2026-04-29 02:15 | -11.09942 | -37.59973 | 36029 ft | 453 kts | 214° |
| 2026-04-29 02:15 | -11.15091 | -37.63689 | 36029 ft | 454 kts | 214° |
| 2026-04-29 02:16 | -11.20252 | -37.67416 | 36029 ft | 455 kts | 214° |
| 2026-04-29 02:16 | -11.25357 | -37.71104 | 36030 ft | 455 kts | 214° |
| 2026-04-29 02:17 | -11.30532 | -37.74845 | 36026 ft | 456 kts | 214° |
| 2026-04-29 02:17 | -11.35710 | -37.78589 | 36028 ft | 456 kts | 214° |
| 2026-04-29 02:18 | -11.40895 | -37.82341 | 36028 ft | 457 kts | 214° |
| 2026-04-29 02:18 | -11.46087 | -37.86099 | 36027 ft | 457 kts | 214° |
| 2026-04-29 02:19 | -11.51243 | -37.89841 | 36028 ft | 457 kts | 214° |
| 2026-04-29 02:19 | -11.56418 | -37.93609 | 36033 ft | 457 kts | 215° |
| 2026-04-29 02:20 | -11.61590 | -37.97376 | 36035 ft | 456 kts | 214° |
| 2026-04-29 02:20 | -11.66766 | -38.01148 | 36035 ft | 456 kts | 215° |
| 2026-04-29 02:21 | -11.71899 | -38.04889 | 36041 ft | 456 kts | 215° |
| 2026-04-29 02:21 | -11.77063 | -38.08655 | 36035 ft | 455 kts | 215° |
| 2026-04-29 02:22 | -11.82216 | -38.12414 | 36035 ft | 455 kts | 215° |
| 2026-04-29 02:22 | -11.87366 | -38.16174 | 36043 ft | 455 kts | 215° |
| 2026-04-29 02:23 | -11.92491 | -38.19916 | 36035 ft | 455 kts | 215° |
| 2026-04-29 02:23 | -11.97643 | -38.23680 | 36045 ft | 454 kts | 215° |
| 2026-04-29 02:24 | -12.02788 | -38.27441 | 36051 ft | 454 kts | 215° |
| 2026-04-29 02:25 | -12.10502 | -38.33083 | 36055 ft | 454 kts | 215° |
| 2026-04-29 02:25 | -12.15637 | -38.36841 | 36043 ft | 454 kts | 215° |
| 2026-04-29 02:26 | -12.20784 | -38.40609 | 36050 ft | 454 kts | 215° |
| 2026-04-29 02:26 | -12.25926 | -38.44376 | 36047 ft | 455 kts | 215° |
| 2026-04-29 02:27 | -12.31035 | -38.48121 | 36045 ft | 455 kts | 215° |
| 2026-04-29 02:27 | -12.36177 | -38.51892 | 36052 ft | 455 kts | 215° |
| 2026-04-29 02:28 | -12.41328 | -38.55670 | 36050 ft | 455 kts | 215° |
| 2026-04-29 02:28 | -12.46470 | -38.59445 | 36041 ft | 455 kts | 215° |
| 2026-04-29 02:29 | -12.51620 | -38.63227 | 36041 ft | 455 kts | 215° |
| 2026-04-29 02:29 | -12.56765 | -38.67008 | 36050 ft | 455 kts | 215° |
| 2026-04-29 02:30 | -12.61120 | -38.70209 | 36063 ft | 455 kts | 215° |
| 2026-04-29 02:30 | -12.66274 | -38.74001 | 36055 ft | 455 kts | 215° |
| 2026-04-29 02:31 | -12.71380 | -38.77758 | 36056 ft | 455 kts | 215° |
| 2026-04-29 02:31 | -12.76521 | -38.81543 | 36063 ft | 455 kts | 215° |
| 2026-04-29 02:32 | -12.79957 | -38.84075 | 36052 ft | 455 kts | 215° |